Time;durP1;ratioP1;P1;durP2;ratioP2;P2;SDS_P1;SDS_P2;PMS_P1;PMS_P2;Temp;Humidity;BMP_temperature;BMP_pressure;BME280_temperature;BME280_humidity;BME280_pressure;Samples;Min_cycle;Max_cycle;Signal;HPM_P1;HPM_P2
2023/01/06 00:00:05;;;;;;;29.42;14.38;;;;;;;;;;2082923;28;20059;-62
2023/01/06 00:01:07;;;;;;;34.72;13.95;;;;;;;;;;2083064;28;20032;-63
2023/01/06 00:02:07;;;;;;;39.10;15.52;;;;;;;;;;2082925;28;20076;-63
2023/01/06 00:03:08;;;;;;;36.10;15.13;;;;;;;;;;2085255;28;20048;-62
2023/01/06 00:04:08;;;;;;;39.03;16.27;;;;;;;;;;2090906;28;20864;-63
2023/01/06 00:05:08;;;;;;;45.10;15.37;;;;;;;;;;2091326;28;20032;-63
2023/01/06 00:06:10;;;;;;;35.90;16.27;;;;;;;;;;2091119;28;20245;-62
2023/01/06 00:07:11;;;;;;;32.70;14.13;;;;;;;;;;2091261;28;20036;-62
2023/01/06 00:08:11;;;;;;;32.35;14.40;;;;;;;;;;2089746;28;20033;-63
2023/01/06 00:09:11;;;;;;;36.00;15.85;;;;;;;;;;2091291;28;20025;-62
2023/01/06 00:10:11;;;;;;;43.75;15.68;;;;;;;;;;2091166;28;20032;-63
2023/01/06 00:11:12;;;;;;;36.15;15.23;;;;;;;;;;2086963;28;20152;-63
2023/01/06 00:12:12;;;;;;;36.53;15.18;;;;;;;;;;2082891;28;20056;-62
2023/01/06 00:13:12;;;;;;;34.63;14.57;;;;;;;;;;2084292;28;20018;-62
2023/01/06 00:14:13;;;;;;;28.77;14.67;;;;;;;;;;2082861;28;20254;-62
2023/01/06 00:15:13;;;;;;;47.92;15.10;;;;;;;;;;2082981;28;20247;-62
2023/01/06 00:16:17;;;;;;;36.38;14.20;;;;;;;;;;2082794;28;20060;-62
2023/01/06 00:17:18;;;;;;;33.45;15.32;;;;;;;;;;2082950;28;20021;-63
2023/01/06 00:18:18;;;;;;;31.17;14.48;;;;;;;;;;2087920;28;20033;-63
2023/01/06 00:19:18;;;;;;;30.23;15.23;;;;;;;;;;2091201;28;20024;-63
2023/01/06 00:20:18;;;;;;;29.38;15.15;;;;;;;;;;2091102;28;20031;-63
2023/01/06 00:21:19;;;;;;;39.33;15.23;;;;;;;;;;2091302;28;20067;-63
2023/01/06 00:22:19;;;;;;;34.28;15.43;;;;;;;;;;2091066;28;20083;-62
2023/01/06 00:23:19;;;;;;;35.73;15.77;;;;;;;;;;2086714;28;20116;-62
2023/01/06 00:24:19;;;;;;;39.83;16.23;;;;;;;;;;2082157;28;20267;-63
2023/01/06 00:25:19;;;;;;;34.13;15.20;;;;;;;;;;2082951;28;20246;-63
2023/01/06 00:26:19;;;;;;;34.67;16.23;;;;;;;;;;2082901;28;20690;-62
2023/01/06 00:27:19;;;;;;;26.67;15.25;;;;;;;;;;2082038;28;20030;-62
2023/01/06 00:28:20;;;;;;;29.55;15.43;;;;;;;;;;2087012;28;20025;-62
2023/01/06 00:29:20;;;;;;;29.42;16.25;;;;;;;;;;2091036;28;20024;-62
2023/01/06 00:30:20;;;;;;;34.33;15.83;;;;;;;;;;2091045;28;20075;-62
2023/01/06 00:31:20;;;;;;;37.73;16.33;;;;;;;;;;2091039;28;20709;-62
2023/01/06 00:32:21;;;;;;;38.83;16.63;;;;;;;;;;2090521;28;20276;-62
2023/01/06 00:33:21;;;;;;;33.45;16.20;;;;;;;;;;2089578;28;20376;-62
2023/01/06 00:34:21;;;;;;;33.65;16.10;;;;;;;;;;2091163;28;20074;-62
2023/01/06 00:35:21;;;;;;;33.90;16.20;;;;;;;;;;2089237;28;20110;-62
2023/01/06 00:36:22;;;;;;;33.40;17.40;;;;;;;;;;2091039;28;20028;-63
2023/01/06 00:37:22;;;;;;;31.38;16.50;;;;;;;;;;2090967;28;20261;-63
2023/01/06 00:38:22;;;;;;;34.57;15.70;;;;;;;;;;2091072;28;20017;-63
2023/01/06 00:39:22;;;;;;;25.43;15.87;;;;;;;;;;2090990;28;20242;-62
2023/01/06 00:40:22;;;;;;;34.13;15.60;;;;;;;;;;2089581;28;20259;-63
2023/01/06 00:42:42;;;;;;;31.83;15.63;;;;;;;;;;2090939;28;20234;-62
2023/01/06 00:43:42;;;;;;;30.23;16.88;;;;;;;;;;2090727;28;20025;-63
2023/01/06 00:44:42;;;;;;;38.87;15.67;;;;;;;;;;2091119;28;20372;-62
2023/01/06 00:45:42;;;;;;;34.90;17.10;;;;;;;;;;2089464;28;20281;-63
2023/01/06 00:46:42;;;;;;;31.38;17.38;;;;;;;;;;2091080;28;20333;-63
2023/01/06 00:47:42;;;;;;;33.53;16.73;;;;;;;;;;2090858;28;20028;-63
2023/01/06 00:48:42;;;;;;;31.13;16.07;;;;;;;;;;2090961;28;20082;-62
2023/01/06 00:49:43;;;;;;;30.50;16.93;;;;;;;;;;2090877;28;20246;-62
2023/01/06 00:50:43;;;;;;;29.38;16.90;;;;;;;;;;2089359;28;20262;-62
2023/01/06 00:51:43;;;;;;;26.60;15.93;;;;;;;;;;2090850;28;20025;-62
2023/01/06 00:52:43;;;;;;;29.30;16.50;;;;;;;;;;2090977;28;20146;-63
2023/01/06 00:53:43;;;;;;;31.65;17.13;;;;;;;;;;2090839;28;20021;-62
2023/01/06 00:54:44;;;;;;;33.13;15.95;;;;;;;;;;2090653;28;20025;-62
2023/01/06 00:55:44;;;;;;;26.98;15.90;;;;;;;;;;2089205;28;20060;-63
2023/01/06 00:56:45;;;;;;;26.13;15.67;;;;;;;;;;2090925;28;20377;-62
2023/01/06 00:57:46;;;;;;;22.83;15.43;;;;;;;;;;2089116;28;20317;-62
2023/01/06 00:58:46;;;;;;;27.30;15.88;;;;;;;;;;2090959;28;20028;-62
2023/01/06 00:59:46;;;;;;;26.92;16.50;;;;;;;;;;2090873;28;20365;-62
2023/01/06 01:00:46;;;;;;;26.85;15.85;;;;;;;;;;2090830;28;20019;-63
2023/01/06 01:01:47;;;;;;;32.83;14.97;;;;;;;;;;2090929;28;20043;-63
2023/01/06 01:02:47;;;;;;;25.58;14.88;;;;;;;;;;2089195;28;20242;-63
2023/01/06 01:03:47;;;;;;;20.70;14.57;;;;;;;;;;2090502;28;20021;-63
2023/01/06 01:04:47;;;;;;;24.93;14.93;;;;;;;;;;2090904;28;20024;-63
2023/01/06 01:05:48;;;;;;;25.75;15.23;;;;;;;;;;2090719;28;20253;-63
2023/01/06 01:06:48;;;;;;;28.20;15.03;;;;;;;;;;2090842;28;20063;-63
2023/01/06 01:07:48;;;;;;;23.73;15.05;;;;;;;;;;2089603;28;20249;-63
2023/01/06 01:08:52;;;;;;;24.50;14.60;;;;;;;;;;2089228;28;20013;-61
2023/01/06 01:09:52;;;;;;;31.33;16.88;;;;;;;;;;2086030;28;20068;-62
2023/01/06 01:10:53;;;;;;;38.72;19.17;;;;;;;;;;2083768;28;20330;-61
2023/01/06 01:12:09;;;;;;;36.25;18.63;;;;;;;;;;2090797;28;20017;-61
2023/01/06 01:13:09;;;;;;;22.95;15.27;;;;;;;;;;2090922;28;20021;-61
2023/01/06 01:14:10;;;;;;;19.38;12.73;;;;;;;;;;2090617;28;20025;-61
2023/01/06 01:15:10;;;;;;;14.93;11.63;;;;;;;;;;2087058;28;20105;-61
2023/01/06 01:16:10;;;;;;;13.23;10.48;;;;;;;;;;2082350;28;20021;-62
2023/01/06 01:17:11;;;;;;;15.27;10.10;;;;;;;;;;2084121;28;20051;-61
2023/01/06 01:18:11;;;;;;;11.30;10.02;;;;;;;;;;2086324;28;20231;-61
2023/01/06 01:19:11;;;;;;;10.13;9.10;;;;;;;;;;2083233;28;20409;-61
2023/01/06 01:20:11;;;;;;;11.18;8.98;;;;;;;;;;2085675;28;20060;-61
2023/01/06 01:21:12;;;;;;;10.52;8.35;;;;;;;;;;2082192;28;20030;-61
2023/01/06 01:22:12;;;;;;;11.03;8.50;;;;;;;;;;2083034;28;20037;-61
2023/01/06 01:23:12;;;;;;;9.60;8.38;;;;;;;;;;2082260;28;20235;-61
2023/01/06 01:24:13;;;;;;;10.80;8.32;;;;;;;;;;2082549;28;20076;-61
2023/01/06 01:25:13;;;;;;;9.15;8.25;;;;;;;;;;2082410;28;20022;-61
2023/01/06 01:26:13;;;;;;;9.52;8.45;;;;;;;;;;2090041;28;20025;-61
2023/01/06 01:27:14;;;;;;;10.23;8.38;;;;;;;;;;2087907;28;20479;-60
2023/01/06 01:28:14;;;;;;;10.25;7.82;;;;;;;;;;2082572;28;20032;-60
2023/01/06 01:29:15;;;;;;;9.77;8.48;;;;;;;;;;2082353;28;20024;-60
2023/01/06 01:30:15;;;;;;;13.70;9.30;;;;;;;;;;2082456;28;20069;-60
2023/01/06 01:31:15;;;;;;;10.65;9.35;;;;;;;;;;2082275;28;20484;-60
2023/01/06 01:32:15;;;;;;;10.95;8.35;;;;;;;;;;2082295;28;20033;-60
2023/01/06 01:33:15;;;;;;;10.38;8.77;;;;;;;;;;2082305;28;20025;-60
2023/01/06 01:34:16;;;;;;;10.52;8.70;;;;;;;;;;2082371;28;20029;-61
2023/01/06 01:35:16;;;;;;;9.30;8.35;;;;;;;;;;2082255;28;20049;-61
2023/01/06 01:36:17;;;;;;;11.40;8.55;;;;;;;;;;2083651;28;20021;-64
2023/01/06 01:37:17;;;;;;;9.55;8.55;;;;;;;;;;2089183;28;20021;-64
2023/01/06 01:38:17;;;;;;;9.55;8.38;;;;;;;;;;2090739;28;20387;-63
2023/01/06 01:39:19;;;;;;;10.30;9.07;;;;;;;;;;2090348;28;20435;-63
2023/01/06 01:40:19;;;;;;;10.40;8.88;;;;;;;;;;2090603;28;20250;-63
2023/01/06 01:41:21;;;;;;;12.93;10.27;;;;;;;;;;2088444;28;20043;-63
2023/01/06 01:42:21;;;;;;;12.10;10.50;;;;;;;;;;2090706;28;20230;-63
2023/01/06 01:43:21;;;;;;;15.68;11.40;;;;;;;;;;2088917;28;21400;-63
2023/01/06 01:44:40;;;;;;;14.23;10.97;;;;;;;;;;2090530;28;20025;-64
2023/01/06 01:45:44;;;;;;;15.85;11.82;;;;;;;;;;2090451;28;20254;-64
2023/01/06 01:46:44;;;;;;;15.48;11.50;;;;;;;;;;2089304;28;20422;-64
2023/01/06 01:47:59;;;;;;;14.02;11.05;;;;;;;;;;2090393;28;20055;-64
2023/01/06 01:49:02;;;;;;;15.75;11.63;;;;;;;;;;2090718;28;20096;-64
2023/01/06 01:50:11;;;;;;;19.08;13.15;;;;;;;;;;2087765;28;20087;-64
2023/01/06 01:51:14;;;;;;;15.32;12.57;;;;;;;;;;2082468;28;20029;-64
2023/01/06 01:52:14;;;;;;;19.67;13.77;;;;;;;;;;2082267;28;20380;-63
2023/01/06 01:53:24;;;;;;;19.80;13.70;;;;;;;;;;2082519;28;20021;-63
2023/01/06 01:54:27;;;;;;;19.00;13.13;;;;;;;;;;2082223;28;20021;-63
2023/01/06 01:55:29;;;;;;;23.17;14.25;;;;;;;;;;2089226;28;20033;-63
2023/01/06 01:56:30;;;;;;;21.58;14.05;;;;;;;;;;2090394;28;20017;-64
2023/01/06 01:57:34;;;;;;;20.05;14.20;;;;;;;;;;2090503;28;20387;-64
2023/01/06 01:58:41;;;;;;;21.13;13.98;;;;;;;;;;2090462;28;20017;-63
2023/01/06 01:59:43;;;;;;;22.15;14.68;;;;;;;;;;2089143;28;20491;-64
2023/01/06 02:00:43;;;;;;;23.95;15.48;;;;;;;;;;2089672;28;20111;-63
2023/01/06 02:01:44;;;;;;;20.85;14.50;;;;;;;;;;2089810;28;20086;-63
2023/01/06 02:02:44;;;;;;;21.70;14.30;;;;;;;;;;2089752;28;20017;-63
2023/01/06 02:03:44;;;;;;;21.33;13.68;;;;;;;;;;2090085;28;20017;-63
2023/01/06 02:04:47;;;;;;;22.23;13.60;;;;;;;;;;2089003;28;20029;-64
2023/01/06 02:05:49;;;;;;;19.73;14.13;;;;;;;;;;2086466;28;20032;-63
2023/01/06 02:06:49;;;;;;;22.23;14.18;;;;;;;;;;2089657;28;20500;-63
2023/01/06 02:07:50;;;;;;;27.27;15.18;;;;;;;;;;2090550;28;20029;-63
2023/01/06 02:09:03;;;;;;;23.27;13.93;;;;;;;;;;2090340;28;20441;-64
2023/01/06 02:10:07;;;;;;;23.10;13.48;;;;;;;;;;2089058;28;20460;-63
2023/01/06 02:11:07;;;;;;;25.33;14.35;;;;;;;;;;2090278;28;20028;-64
2023/01/06 02:12:08;;;;;;;22.23;13.07;;;;;;;;;;2090504;28;20108;-63
2023/01/06 02:13:08;;;;;;;25.08;14.15;;;;;;;;;;2090268;28;20471;-64
2023/01/06 02:14:09;;;;;;;23.27;13.97;;;;;;;;;;2090460;28;20057;-63
2023/01/06 02:15:14;;;;;;;24.85;13.85;;;;;;;;;;2088761;28;20262;-63
2023/01/06 02:16:33;;;;;;;23.38;13.50;;;;;;;;;;2090451;28;20025;-63
2023/01/06 02:17:39;;;;;;;21.77;13.35;;;;;;;;;;2085233;28;20047;-64
2023/01/06 02:18:50;;;;;;;25.42;13.82;;;;;;;;;;2082171;28;20022;-63
2023/01/06 02:19:59;;;;;;;25.45;14.70;;;;;;;;;;2081917;28;20056;-64
2023/01/06 02:21:14;;;;;;;25.48;13.57;;;;;;;;;;2090268;28;20079;-64
2023/01/06 02:22:42;;;;;;;29.45;15.10;;;;;;;;;;2090585;28;20381;-64
2023/01/06 02:23:42;;;;;;;27.45;14.30;;;;;;;;;;2090381;28;20100;-64
2023/01/06 02:24:55;;;;;;;31.90;15.57;;;;;;;;;;2090348;28;20044;-63
2023/01/06 02:26:05;;;;;;;31.38;15.00;;;;;;;;;;2089795;28;20733;-64
2023/01/06 02:27:24;;;;;;;29.80;15.80;;;;;;;;;;2090655;28;20119;-63
2023/01/06 02:28:30;;;;;;;34.10;16.77;;;;;;;;;;2085455;28;20055;-63
2023/01/06 02:29:57;;;;;;;40.75;17.90;;;;;;;;;;2081910;28;20358;-63
2023/01/06 02:31:15;;;;;;;48.47;19.70;;;;;;;;;;2073965;28;20038;-63
2023/01/06 02:32:16;;;;;;;37.72;17.45;;;;;;;;;;2090398;28;20056;-63
2023/01/06 02:33:19;;;;;;;50.33;20.23;;;;;;;;;;2083793;28;20477;-64
2023/01/06 02:34:31;;;;;;;47.50;19.75;;;;;;;;;;2082146;28;20580;-63
2023/01/06 02:35:38;;;;;;;46.70;20.17;;;;;;;;;;2082179;28;20457;-63
2023/01/06 02:36:38;;;;;;;53.53;20.85;;;;;;;;;;2082163;28;20473;-63
2023/01/06 02:37:50;;;;;;;47.90;20.43;;;;;;;;;;2081573;28;20021;-63
2023/01/06 02:38:59;;;;;;;54.00;21.48;;;;;;;;;;2082048;28;20239;-63
2023/01/06 02:39:59;;;;;;;55.72;21.67;;;;;;;;;;2082050;28;20346;-63
2023/01/06 02:41:11;;;;;;;48.30;20.57;;;;;;;;;;2081474;28;20036;-63
2023/01/06 02:42:14;;;;;;;42.45;19.45;;;;;;;;;;2081507;28;20247;-63
2023/01/06 02:43:23;;;;;;;64.60;21.85;;;;;;;;;;2084764;28;20021;-63
2023/01/06 02:44:28;;;;;;;54.85;21.17;;;;;;;;;;2083576;28;20028;-64
2023/01/06 02:45:53;;;;;;;57.65;22.38;;;;;;;;;;2090346;28;20021;-63
2023/01/06 02:47:08;;;;;;;63.10;22.48;;;;;;;;;;2081679;28;20021;-63
2023/01/06 02:48:11;;;;;;;61.25;23.17;;;;;;;;;;2089581;28;20098;-64
2023/01/06 02:49:30;;;;;;;62.65;22.27;;;;;;;;;;2089643;28;20104;-64
2023/01/06 02:50:36;;;;;;;69.40;24.52;;;;;;;;;;2088818;28;20081;-64
2023/01/06 02:51:50;;;;;;;72.43;25.33;;;;;;;;;;2091983;28;20078;-63
2023/01/06 02:53:06;;;;;;;67.30;24.30;;;;;;;;;;2091073;28;20017;-63
2023/01/06 02:54:07;;;;;;;69.88;25.00;;;;;;;;;;2091318;28;20036;-63
2023/01/06 02:55:14;;;;;;;74.93;26.17;;;;;;;;;;2090458;28;20049;-63
2023/01/06 02:56:14;;;;;;;80.53;24.90;;;;;;;;;;2091841;28;20238;-63
2023/01/06 02:57:22;;;;;;;75.03;25.20;;;;;;;;;;2091868;28;20032;-63
2023/01/06 02:58:40;;;;;;;73.20;25.60;;;;;;;;;;2091816;28;20369;-63
2023/01/06 02:59:44;;;;;;;68.28;23.50;;;;;;;;;;2090742;28;20035;-63
2023/01/06 03:00:46;;;;;;;79.60;25.05;;;;;;;;;;2086726;28;20073;-63
2023/01/06 03:01:49;;;;;;;85.05;26.42;;;;;;;;;;2088652;28;20025;-63
2023/01/06 03:02:53;;;;;;;88.18;28.17;;;;;;;;;;2091670;28;20471;-63
2023/01/06 03:03:55;;;;;;;83.93;27.17;;;;;;;;;;2091419;28;20072;-63
2023/01/06 03:04:57;;;;;;;93.43;27.40;;;;;;;;;;2091700;28;20434;-63
2023/01/06 03:06:01;;;;;;;91.85;27.10;;;;;;;;;;2091764;28;20040;-63
2023/01/06 03:07:02;;;;;;;95.82;27.63;;;;;;;;;;2091641;28;20083;-63
2023/01/06 03:08:08;;;;;;;91.38;27.95;;;;;;;;;;2091636;28;20021;-63
2023/01/06 03:09:08;;;;;;;98.75;29.33;;;;;;;;;;2091666;28;20099;-64
2023/01/06 03:10:10;;;;;;;96.72;28.83;;;;;;;;;;2091826;28;20032;-63
2023/01/06 03:11:10;;;;;;;108.80;31.25;;;;;;;;;;2091527;28;20021;-64
2023/01/06 03:12:17;;;;;;;95.22;28.73;;;;;;;;;;2091146;28;20424;-63
2023/01/06 03:13:32;;;;;;;95.38;27.58;;;;;;;;;;2091043;28;20079;-63
2023/01/06 03:14:36;;;;;;;90.22;28.08;;;;;;;;;;2091863;28;20457;-64
2023/01/06 03:15:37;;;;;;;101.65;29.75;;;;;;;;;;2091632;28;20017;-63
2023/01/06 03:16:37;;;;;;;97.88;29.73;;;;;;;;;;2091666;28;20080;-64
2023/01/06 03:17:37;;;;;;;112.10;31.08;;;;;;;;;;2091596;28;20021;-63
2023/01/06 03:18:38;;;;;;;113.88;31.05;;;;;;;;;;2091676;28;20024;-64
2023/01/06 03:19:38;;;;;;;92.18;28.52;;;;;;;;;;2091603;28;20013;-63
2023/01/06 03:20:39;;;;;;;100.15;28.88;;;;;;;;;;2091646;28;20380;-63
2023/01/06 03:21:41;;;;;;;102.18;28.90;;;;;;;;;;2091650;28;20021;-63
2023/01/06 03:22:42;;;;;;;98.07;30.38;;;;;;;;;;2091599;28;20467;-64
2023/01/06 03:23:43;;;;;;;102.10;30.77;;;;;;;;;;2091564;28;20052;-63
2023/01/06 03:24:43;;;;;;;89.95;29.35;;;;;;;;;;2091538;28;20039;-63
2023/01/06 03:25:44;;;;;;;87.35;29.42;;;;;;;;;;2091522;28;20021;-64
2023/01/06 03:26:45;;;;;;;93.03;28.63;;;;;;;;;;2091757;28;20563;-63
2023/01/06 03:27:45;;;;;;;94.47;27.73;;;;;;;;;;2091506;28;20021;-63
2023/01/06 03:28:45;;;;;;;94.03;28.90;;;;;;;;;;2091708;28;20043;-63
2023/01/06 03:29:46;;;;;;;84.00;25.43;;;;;;;;;;2091487;28;20300;-63
2023/01/06 03:30:57;;;;;;;88.47;27.45;;;;;;;;;;2091550;28;20250;-63
2023/01/06 03:32:04;;;;;;;96.80;27.42;;;;;;;;;;2091574;28;20028;-64
2023/01/06 03:33:24;;;;;;;79.05;25.55;;;;;;;;;;2091539;28;20419;-64
2023/01/06 03:34:24;;;;;;;83.47;25.55;;;;;;;;;;2091073;28;20110;-65
2023/01/06 03:35:33;;;;;;;99.27;29.00;;;;;;;;;;2091566;28;20095;-64
2023/01/06 03:36:39;;;;;;;85.32;26.27;;;;;;;;;;2090777;28;20262;-64
2023/01/06 03:37:55;;;;;;;80.00;24.98;;;;;;;;;;2090929;28;20017;-64
2023/01/06 03:39:01;;;;;;;69.55;22.75;;;;;;;;;;2091639;28;20024;-64
2023/01/06 03:40:20;;;;;;;76.13;23.23;;;;;;;;;;2091469;28;20021;-64
2023/01/06 03:41:21;;;;;;;68.97;22.08;;;;;;;;;;2091472;28;20017;-64
2023/01/06 03:43:49;;;;;;;60.90;20.15;;;;;;;;;;2091537;28;20457;-63
2023/01/06 03:45:01;;;;;;;61.33;20.42;;;;;;;;;;2091423;28;20029;-63
2023/01/06 03:46:01;;;;;;;65.53;21.17;;;;;;;;;;2091538;28;20032;-63
2023/01/06 03:47:09;;;;;;;67.28;21.63;;;;;;;;;;2090659;28;20400;-64
2023/01/06 03:48:22;;;;;;;59.90;21.00;;;;;;;;;;2090916;28;20021;-64
2023/01/06 03:49:28;;;;;;;56.63;19.45;;;;;;;;;;2091414;28;20376;-63
2023/01/06 03:50:32;;;;;;;51.03;19.20;;;;;;;;;;2091316;28;20111;-63
2023/01/06 03:51:38;;;;;;;54.15;19.73;;;;;;;;;;2091427;28;20482;-64
2023/01/06 03:52:40;;;;;;;59.47;20.42;;;;;;;;;;2091369;28;20021;-64
2023/01/06 03:53:43;;;;;;;56.70;19.85;;;;;;;;;;2091575;28;20021;-63
2023/01/06 03:54:46;;;;;;;56.85;19.83;;;;;;;;;;2091333;28;20101;-64
2023/01/06 03:55:50;;;;;;;65.50;21.02;;;;;;;;;;2091509;28;20017;-64
2023/01/06 03:56:56;;;;;;;60.10;21.02;;;;;;;;;;2091261;28;20020;-64
2023/01/06 03:57:57;;;;;;;53.42;18.65;;;;;;;;;;2090974;28;20488;-64
2023/01/06 03:58:59;;;;;;;53.80;21.25;;;;;;;;;;2090613;28;20143;-64
2023/01/06 04:00:02;;;;;;;63.35;20.45;;;;;;;;;;2090673;28;20161;-63
2023/01/06 04:01:02;;;;;;;51.97;19.33;;;;;;;;;;2090732;28;20079;-64
2023/01/06 04:02:04;;;;;;;55.70;20.20;;;;;;;;;;2091258;28;20028;-63
2023/01/06 04:03:08;;;;;;;59.75;19.98;;;;;;;;;;2091237;28;20038;-64
2023/01/06 04:04:08;;;;;;;52.03;19.73;;;;;;;;;;2091196;28;20170;-64
2023/01/06 04:05:12;;;;;;;60.10;21.30;;;;;;;;;;2091333;28;20035;-64
2023/01/06 04:06:13;;;;;;;53.03;19.92;;;;;;;;;;2091297;28;20043;-64
2023/01/06 04:07:13;;;;;;;53.60;20.77;;;;;;;;;;2091231;28;20445;-64
2023/01/06 04:08:13;;;;;;;55.40;20.48;;;;;;;;;;2091311;28;20381;-64
2023/01/06 04:09:13;;;;;;;51.57;20.00;;;;;;;;;;2091126;28;20025;-64
2023/01/06 04:10:15;;;;;;;50.67;21.05;;;;;;;;;;2091393;28;20268;-64
2023/01/06 04:12:40;;;;;;;60.47;21.08;;;;;;;;;;2091191;28;20021;-64
2023/01/06 04:13:40;;;;;;;54.75;19.63;;;;;;;;;;2091306;28;20023;-64
2023/01/06 04:14:40;;;;;;;51.73;19.90;;;;;;;;;;2091373;28;20463;-64
2023/01/06 04:15:41;;;;;;;52.53;19.40;;;;;;;;;;2091235;28;20677;-65
2023/01/06 04:16:41;;;;;;;51.10;20.50;;;;;;;;;;2091237;28;20339;-64
2023/01/06 04:17:42;;;;;;;55.20;20.95;;;;;;;;;;2091150;28;20453;-63
2023/01/06 04:18:42;;;;;;;59.92;20.63;;;;;;;;;;2091208;28;20040;-63
2023/01/06 04:19:42;;;;;;;55.10;20.88;;;;;;;;;;2091094;28;20107;-64
2023/01/06 04:20:43;;;;;;;55.30;21.03;;;;;;;;;;2091324;28;20413;-64
2023/01/06 04:21:43;;;;;;;50.05;20.30;;;;;;;;;;2090974;28;20291;-64
2023/01/06 04:22:43;;;;;;;56.03;21.67;;;;;;;;;;2091189;28;20005;-64
2023/01/06 04:23:43;;;;;;;57.15;21.00;;;;;;;;;;2091100;28;20843;-64
2023/01/06 04:24:44;;;;;;;56.83;21.13;;;;;;;;;;2091125;28;20538;-63
2023/01/06 04:25:44;;;;;;;54.27;19.83;;;;;;;;;;2091100;28;20242;-64
2023/01/06 04:26:44;;;;;;;48.88;19.42;;;;;;;;;;2091021;28;20238;-63
2023/01/06 04:27:44;;;;;;;47.13;19.03;;;;;;;;;;2091179;28;20131;-63
2023/01/06 04:28:44;;;;;;;52.27;20.03;;;;;;;;;;2091021;28;20238;-64
2023/01/06 04:29:44;;;;;;;54.22;18.73;;;;;;;;;;2091106;28;20288;-64
2023/01/06 04:30:45;;;;;;;55.28;20.02;;;;;;;;;;2091032;28;20512;-63
2023/01/06 04:31:45;;;;;;;49.50;19.40;;;;;;;;;;2090478;28;20021;-64
2023/01/06 04:32:45;;;;;;;45.00;18.57;;;;;;;;;;2090469;28;20037;-63
2023/01/06 04:33:45;;;;;;;49.80;18.63;;;;;;;;;;2091100;28;20246;-63
2023/01/06 04:34:45;;;;;;;53.92;18.70;;;;;;;;;;2090937;28;20082;-63
2023/01/06 04:35:45;;;;;;;48.92;19.58;;;;;;;;;;2090592;28;20017;-64
2023/01/06 04:36:45;;;;;;;51.27;19.13;;;;;;;;;;2090375;28;20040;-63
2023/01/06 04:37:46;;;;;;;50.77;19.00;;;;;;;;;;2090999;28;20245;-63
2023/01/06 04:38:46;;;;;;;52.70;18.70;;;;;;;;;;2090290;28;20764;-63
2023/01/06 04:39:46;;;;;;;42.85;18.00;;;;;;;;;;2090378;28;20263;-63
2023/01/06 04:40:46;;;;;;;47.15;19.05;;;;;;;;;;2090885;28;20013;-63
2023/01/06 04:41:46;;;;;;;43.00;17.77;;;;;;;;;;2091244;28;20063;-64
2023/01/06 04:43:05;;;;;;;51.65;19.45;;;;;;;;;;2090940;28;20242;-63
2023/01/06 04:44:05;;;;;;;49.60;18.70;;;;;;;;;;2091102;28;20153;-63
2023/01/06 04:45:06;;;;;;;48.90;18.00;;;;;;;;;;2090970;28;20135;-64
2023/01/06 04:46:06;;;;;;;43.17;19.85;;;;;;;;;;2090991;28;20155;-63
2023/01/06 04:47:07;;;;;;;49.20;18.92;;;;;;;;;;2090955;28;20032;-63
2023/01/06 04:48:08;;;;;;;48.03;18.48;;;;;;;;;;2090742;28;20031;-63
2023/01/06 04:49:08;;;;;;;55.55;20.65;;;;;;;;;;2090853;28;20099;-63
2023/01/06 04:50:08;;;;;;;47.10;20.50;;;;;;;;;;2090965;28;20025;-63
2023/01/06 04:51:09;;;;;;;47.17;20.27;;;;;;;;;;2090757;28;20288;-63
2023/01/06 04:52:09;;;;;;;50.55;21.00;;;;;;;;;;2090905;28;20028;-63
2023/01/06 04:53:10;;;;;;;58.60;21.93;;;;;;;;;;2090690;28;20016;-63
2023/01/06 04:54:11;;;;;;;60.83;21.20;;;;;;;;;;2090908;28;20242;-63
2023/01/06 04:55:11;;;;;;;52.00;21.70;;;;;;;;;;2090787;28;20056;-63
2023/01/06 04:56:12;;;;;;;47.65;18.05;;;;;;;;;;2090906;28;20029;-63
2023/01/06 04:57:12;;;;;;;52.05;21.30;;;;;;;;;;2090928;28;20047;-63
2023/01/06 04:58:12;;;;;;;52.70;20.17;;;;;;;;;;2090934;28;20469;-63
2023/01/06 04:59:12;;;;;;;58.17;22.30;;;;;;;;;;2090820;28;20698;-63
2023/01/06 05:00:12;;;;;;;50.63;21.13;;;;;;;;;;2091005;28;20242;-63
2023/01/06 05:01:13;;;;;;;45.20;20.48;;;;;;;;;;2090144;28;20261;-63
2023/01/06 05:02:13;;;;;;;46.70;21.00;;;;;;;;;;2090073;28;20519;-63
2023/01/06 05:03:13;;;;;;;57.23;21.63;;;;;;;;;;2090217;28;20475;-63
2023/01/06 05:04:13;;;;;;;42.83;19.40;;;;;;;;;;2090583;28;20297;-63
2023/01/06 05:05:14;;;;;;;47.70;20.37;;;;;;;;;;2090876;28;20021;-63
2023/01/06 05:06:15;;;;;;;58.25;21.40;;;;;;;;;;2089975;28;20246;-63
2023/01/06 05:07:15;;;;;;;48.95;20.45;;;;;;;;;;2082000;28;20035;-63
2023/01/06 05:08:15;;;;;;;53.60;22.07;;;;;;;;;;2081784;28;20034;-63
2023/01/06 05:09:15;;;;;;;48.90;20.87;;;;;;;;;;2090101;28;20278;-63
2023/01/06 05:10:15;;;;;;;42.63;20.27;;;;;;;;;;2090578;28;20735;-63
2023/01/06 05:11:17;;;;;;;45.58;20.45;;;;;;;;;;2090560;28;20602;-63
2023/01/06 05:12:17;;;;;;;49.97;20.30;;;;;;;;;;2090819;28;20349;-64
2023/01/06 05:13:17;;;;;;;55.13;21.97;;;;;;;;;;2090543;28;20029;-63
2023/01/06 05:14:17;;;;;;;50.53;21.03;;;;;;;;;;2090451;28;20750;-64
2023/01/06 05:15:18;;;;;;;52.15;21.17;;;;;;;;;;2090865;28;20245;-64
2023/01/06 05:16:31;;;;;;;44.97;21.13;;;;;;;;;;2090692;28;20099;-64
2023/01/06 05:17:31;;;;;;;44.80;20.73;;;;;;;;;;2090869;28;20242;-64
2023/01/06 05:18:32;;;;;;;45.73;20.80;;;;;;;;;;2090688;28;20036;-64
2023/01/06 05:19:32;;;;;;;43.70;20.13;;;;;;;;;;2090808;28;20238;-64
2023/01/06 05:20:32;;;;;;;52.90;20.43;;;;;;;;;;2090684;28;20024;-63
2023/01/06 05:21:32;;;;;;;56.53;20.30;;;;;;;;;;2090828;28;20300;-64
2023/01/06 05:22:32;;;;;;;49.92;21.88;;;;;;;;;;2090592;28;20249;-64
2023/01/06 05:23:32;;;;;;;44.23;20.87;;;;;;;;;;2090715;28;20104;-64
2023/01/06 05:24:32;;;;;;;46.90;22.13;;;;;;;;;;2090607;28;20278;-63
2023/01/06 05:25:33;;;;;;;56.88;23.35;;;;;;;;;;2090666;28;20021;-63
2023/01/06 05:26:33;;;;;;;53.03;22.50;;;;;;;;;;2090507;28;20028;-63
2023/01/06 05:27:33;;;;;;;53.05;21.42;;;;;;;;;;2090718;28;20013;-64
2023/01/06 05:28:33;;;;;;;54.58;22.73;;;;;;;;;;2090687;28;20016;-63
2023/01/06 05:29:33;;;;;;;44.70;20.42;;;;;;;;;;2090888;28;20074;-63
2023/01/06 05:30:33;;;;;;;47.90;22.88;;;;;;;;;;2090590;28;20092;-63
2023/01/06 05:31:34;;;;;;;51.00;22.57;;;;;;;;;;2090797;28;20025;-63
2023/01/06 05:32:34;;;;;;;49.13;21.95;;;;;;;;;;2090641;28;20240;-63
2023/01/06 05:33:34;;;;;;;57.17;22.50;;;;;;;;;;2090549;28;20041;-63
2023/01/06 05:34:34;;;;;;;45.67;20.90;;;;;;;;;;2090610;28;20032;-63
2023/01/06 05:35:34;;;;;;;42.27;20.03;;;;;;;;;;2090608;28;20024;-63
2023/01/06 05:36:34;;;;;;;53.30;22.88;;;;;;;;;;2090706;28;20713;-63
2023/01/06 05:37:35;;;;;;;44.90;20.90;;;;;;;;;;2090486;28;20028;-63
2023/01/06 05:38:35;;;;;;;46.27;20.63;;;;;;;;;;2090625;28;20244;-63
2023/01/06 05:39:35;;;;;;;48.42;21.95;;;;;;;;;;2090508;28;20331;-63
2023/01/06 05:40:36;;;;;;;44.70;20.80;;;;;;;;;;2089786;28;20029;-63
2023/01/06 05:41:36;;;;;;;45.30;21.48;;;;;;;;;;2089842;28;20108;-63
2023/01/06 05:42:36;;;;;;;44.47;19.63;;;;;;;;;;2090564;28;20028;-63
2023/01/06 05:43:36;;;;;;;47.63;19.47;;;;;;;;;;2090539;28;20281;-63
2023/01/06 05:44:36;;;;;;;49.80;21.48;;;;;;;;;;2090492;28;20282;-63
2023/01/06 05:45:36;;;;;;;38.23;18.13;;;;;;;;;;2090514;28;20031;-63
2023/01/06 05:46:37;;;;;;;46.50;20.37;;;;;;;;;;2090575;28;20292;-63
2023/01/06 05:47:37;;;;;;;44.63;20.33;;;;;;;;;;2090385;28;20713;-63
2023/01/06 05:48:37;;;;;;;45.50;19.47;;;;;;;;;;2090546;28;20021;-64
2023/01/06 05:49:37;;;;;;;44.95;20.75;;;;;;;;;;2090431;28;20252;-63
2023/01/06 05:50:37;;;;;;;41.07;20.80;;;;;;;;;;2090571;28;20044;-63
2023/01/06 05:51:37;;;;;;;39.17;19.47;;;;;;;;;;2090414;28;20325;-63
2023/01/06 05:52:38;;;;;;;38.50;17.70;;;;;;;;;;2090539;28;20240;-63
2023/01/06 05:53:39;;;;;;;43.97;20.23;;;;;;;;;;2090438;28;20242;-63
2023/01/06 05:54:39;;;;;;;43.85;19.42;;;;;;;;;;2090390;28;20386;-63
2023/01/06 05:55:39;;;;;;;35.03;18.13;;;;;;;;;;2090413;28;20025;-63
2023/01/06 05:56:39;;;;;;;38.03;17.07;;;;;;;;;;2090522;28;20021;-63
2023/01/06 05:57:39;;;;;;;35.92;16.95;;;;;;;;;;2090412;28;20296;-63
2023/01/06 05:58:42;;;;;;;36.03;18.00;;;;;;;;;;2089848;28;20056;-63
2023/01/06 05:59:42;;;;;;;32.78;17.73;;;;;;;;;;2089713;28;20029;-63
2023/01/06 06:00:42;;;;;;;41.73;17.37;;;;;;;;;;2090642;28;20372;-63
2023/01/06 06:01:43;;;;;;;34.57;18.37;;;;;;;;;;2090501;28;20308;-63
2023/01/06 06:02:43;;;;;;;40.67;18.67;;;;;;;;;;2090393;28;20296;-63
2023/01/06 06:03:43;;;;;;;42.47;18.80;;;;;;;;;;2090182;28;20246;-64
2023/01/06 06:04:45;;;;;;;35.95;17.33;;;;;;;;;;2090573;28;20039;-63
2023/01/06 06:05:45;;;;;;;31.33;16.40;;;;;;;;;;2090491;28;20017;-63
2023/01/06 06:06:45;;;;;;;32.33;17.80;;;;;;;;;;2090498;28;20063;-64
2023/01/06 06:07:51;;;;;;;40.83;17.37;;;;;;;;;;2090442;28;20025;-63